Time;durP1;ratioP1;P1;durP2;ratioP2;P2;SDS_P1;SDS_P2;PMS_P1;PMS_P2;Temp;Humidity;BMP_temperature;BMP_pressure;BME280_temperature;BME280_humidity;BME280_pressure;Samples;Min_cycle;Max_cycle;Signal;HPM_P1;HPM_P2
2022/10/20 00:00:03;;;;;;;12.13;2.97;;;;;;;;;;5034321;28;20030;-64
2022/10/20 00:02:31;;;;;;;25.30;3.70;;;;;;;;;;5034904;28;20056;-62
2022/10/20 00:04:57;;;;;;;13.38;2.83;;;;;;;;;;5034415;28;20462;-62
2022/10/20 00:07:23;;;;;;;26.83;3.55;;;;;;;;;;5034115;28;20026;-62
2022/10/20 00:09:49;;;;;;;19.40;2.85;;;;;;;;;;5034242;28;20057;-62
2022/10/20 00:12:15;;;;;;;26.48;4.45;;;;;;;;;;5034373;28;20048;-62
2022/10/20 00:14:41;;;;;;;18.50;3.47;;;;;;;;;;5034596;28;20485;-62
2022/10/20 00:17:07;;;;;;;21.88;2.85;;;;;;;;;;5033979;28;20028;-61
2022/10/20 00:19:33;;;;;;;15.25;3.42;;;;;;;;;;5034187;28;20100;-62
2022/10/20 00:22:00;;;;;;;22.40;3.45;;;;;;;;;;5034262;28;20454;-62
2022/10/20 00:24:26;;;;;;;21.27;3.03;;;;;;;;;;5034055;28;20033;-62
2022/10/20 00:26:52;;;;;;;14.45;2.50;;;;;;;;;;5034441;28;20536;-62
2022/10/20 00:29:18;;;;;;;15.00;2.78;;;;;;;;;;5031953;28;20033;-62
2022/10/20 00:31:44;;;;;;;17.77;2.47;;;;;;;;;;5034174;28;20017;-62
2022/10/20 00:34:10;;;;;;;13.43;2.53;;;;;;;;;;5033388;28;20064;-62
2022/10/20 00:36:36;;;;;;;18.92;3.42;;;;;;;;;;5034086;28;20516;-62
2022/10/20 00:39:04;;;;;;;14.27;3.00;;;;;;;;;;5033693;28;20025;-62
2022/10/20 00:41:30;;;;;;;16.48;3.17;;;;;;;;;;5033943;28;20026;-62
2022/10/20 00:43:57;;;;;;;10.10;3.60;;;;;;;;;;5034069;28;20060;-62
2022/10/20 00:46:32;;;;;;;14.82;2.90;;;;;;;;;;5033537;28;20041;-62
2022/10/20 00:49:00;;;;;;;13.63;2.58;;;;;;;;;;5033586;28;20119;-62
2022/10/20 00:51:27;;;;;;;17.63;2.78;;;;;;;;;;5033513;28;20079;-62
2022/10/20 00:53:57;;;;;;;14.52;2.60;;;;;;;;;;5033544;28;20017;-62
2022/10/20 00:56:23;;;;;;;15.20;3.15;;;;;;;;;;5033381;28;20108;-62
2022/10/20 00:58:50;;;;;;;19.63;3.58;;;;;;;;;;5032523;28;20083;-62
2022/10/20 01:01:16;;;;;;;19.95;3.28;;;;;;;;;;5033019;28;20489;-61
2022/10/20 01:03:48;;;;;;;20.38;3.10;;;;;;;;;;5033007;28;20029;-61
2022/10/20 01:06:15;;;;;;;14.48;2.88;;;;;;;;;;5033487;28;20021;-61
2022/10/20 01:08:42;;;;;;;16.90;2.83;;;;;;;;;;5033272;28;20389;-62
2022/10/20 01:11:17;;;;;;;21.33;3.50;;;;;;;;;;5032792;28;20033;-61
2022/10/20 01:13:43;;;;;;;23.20;3.15;;;;;;;;;;5018652;28;20018;-62
2022/10/20 01:16:16;;;;;;;18.20;2.88;;;;;;;;;;5032993;28;20025;-62
2022/10/20 01:18:42;;;;;;;15.57;2.92;;;;;;;;;;5033126;28;20035;-62
2022/10/20 01:21:08;;;;;;;14.57;3.20;;;;;;;;;;5032992;28;20381;-62
2022/10/20 01:23:43;;;;;;;14.60;2.92;;;;;;;;;;5032884;28;20029;-63
2022/10/20 01:26:28;;;;;;;19.80;3.22;;;;;;;;;;5032951;28;20013;-63
2022/10/20 01:29:13;;;;;;;18.67;3.05;;;;;;;;;;5033106;28;20029;-63
2022/10/20 01:31:39;;;;;;;16.92;4.28;;;;;;;;;;5017024;28;20033;-63
2022/10/20 01:34:08;;;;;;;16.30;2.63;;;;;;;;;;5033195;28;20033;-63
2022/10/20 01:37:00;;;;;;;17.08;3.22;;;;;;;;;;5031482;28;20031;-63
2022/10/20 01:39:33;;;;;;;26.00;3.20;;;;;;;;;;5032258;28;20464;-63
2022/10/20 01:42:01;;;;;;;13.75;3.00;;;;;;;;;;5032807;28;20540;-63
2022/10/20 01:44:28;;;;;;;23.23;2.80;;;;;;;;;;5032453;28;20031;-64
2022/10/20 01:46:56;;;;;;;20.98;3.35;;;;;;;;;;5032539;28;20025;-64
2022/10/20 01:49:22;;;;;;;18.00;2.65;;;;;;;;;;5032571;28;20091;-64
2022/10/20 01:51:48;;;;;;;20.40;3.35;;;;;;;;;;5032876;28;20124;-64
2022/10/20 01:54:28;;;;;;;16.88;3.60;;;;;;;;;;5032560;28;20064;-64
2022/10/20 01:57:14;;;;;;;17.70;2.92;;;;;;;;;;5018805;28;20018;-64
2022/10/20 01:59:59;;;;;;;13.63;2.95;;;;;;;;;;5030049;28;20544;-64
2022/10/20 02:02:35;;;;;;;9.48;2.20;;;;;;;;;;5029895;28;20077;-64
2022/10/20 02:05:19;;;;;;;19.17;4.57;;;;;;;;;;5030381;28;20132;-64
2022/10/20 02:07:45;;;;;;;14.98;2.55;;;;;;;;;;5030220;28;20116;-64
2022/10/20 02:10:23;;;;;;;15.95;3.38;;;;;;;;;;5029674;28;20041;-64
2022/10/20 02:12:51;;;;;;;17.55;2.88;;;;;;;;;;5030460;28;20029;-64
2022/10/20 02:15:21;;;;;;;22.48;3.28;;;;;;;;;;5029714;28;20060;-64
2022/10/20 02:17:48;;;;;;;16.60;2.90;;;;;;;;;;5030354;28;20060;-64
2022/10/20 02:20:15;;;;;;;14.45;3.45;;;;;;;;;;5030454;28;20033;-64
2022/10/20 02:22:41;;;;;;;14.93;2.25;;;;;;;;;;5029746;28;20057;-64
2022/10/20 02:25:10;;;;;;;13.32;2.22;;;;;;;;;;5030161;28;20108;-64
2022/10/20 02:27:38;;;;;;;22.13;2.92;;;;;;;;;;5030032;28;20045;-64
2022/10/20 02:30:04;;;;;;;10.45;2.75;;;;;;;;;;5029517;28;20041;-64
2022/10/20 02:32:32;;;;;;;21.85;3.17;;;;;;;;;;5029689;28;20498;-64
2022/10/20 02:34:58;;;;;;;18.52;2.88;;;;;;;;;;5030274;28;20022;-64
2022/10/20 02:37:24;;;;;;;24.10;4.10;;;;;;;;;;5031620;28;20402;-64
2022/10/20 02:39:50;;;;;;;19.23;2.40;;;;;;;;;;5032196;28;20034;-64
2022/10/20 02:42:17;;;;;;;20.08;2.58;;;;;;;;;;5032239;28;20069;-64
2022/10/20 02:44:43;;;;;;;18.90;2.78;;;;;;;;;;5031371;28;20033;-64
2022/10/20 02:47:09;;;;;;;21.35;3.08;;;;;;;;;;5032332;28;20017;-64
2022/10/20 02:49:35;;;;;;;16.30;2.28;;;;;;;;;;5031848;28;20371;-64
2022/10/20 02:52:01;;;;;;;15.52;2.53;;;;;;;;;;5032265;28;20477;-64
2022/10/20 02:54:27;;;;;;;25.80;3.15;;;;;;;;;;5031844;28;20033;-64
2022/10/20 02:56:54;;;;;;;14.52;2.30;;;;;;;;;;5032168;28;20083;-64
2022/10/20 02:59:20;;;;;;;16.92;2.42;;;;;;;;;;5031808;28;20100;-64
2022/10/20 03:01:46;;;;;;;13.88;3.20;;;;;;;;;;5031896;28;20036;-64
2022/10/20 03:04:13;;;;;;;18.70;2.95;;;;;;;;;;5032084;28;20029;-64
2022/10/20 03:06:39;;;;;;;16.98;3.13;;;;;;;;;;5031688;28;20044;-64
2022/10/20 03:09:05;;;;;;;17.88;2.70;;;;;;;;;;5031656;28;20041;-64
2022/10/20 03:11:31;;;;;;;15.90;2.75;;;;;;;;;;5031741;28;20056;-64
2022/10/20 03:13:58;;;;;;;15.73;3.13;;;;;;;;;;5031422;28;20053;-64
2022/10/20 03:16:24;;;;;;;23.02;3.05;;;;;;;;;;5029025;28;20037;-65
2022/10/20 03:18:50;;;;;;;18.35;2.55;;;;;;;;;;5024045;28;20026;-65
2022/10/20 03:21:16;;;;;;;15.57;2.38;;;;;;;;;;5030815;28;20025;-65
2022/10/20 03:23:42;;;;;;;16.90;3.47;;;;;;;;;;5020719;28;20057;-65
2022/10/20 03:26:10;;;;;;;16.98;3.08;;;;;;;;;;5031372;28;20055;-65
2022/10/20 03:28:36;;;;;;;12.75;2.88;;;;;;;;;;5033882;28;20044;-65
2022/10/20 03:31:02;;;;;;;16.35;2.45;;;;;;;;;;5034289;28;20041;-65
2022/10/20 03:33:28;;;;;;;17.25;3.15;;;;;;;;;;5035248;28;20028;-65
2022/10/20 03:35:54;;;;;;;17.73;2.75;;;;;;;;;;5033028;28;20377;-65
2022/10/20 03:38:20;;;;;;;13.98;2.85;;;;;;;;;;5032855;28;20029;-64
2022/10/20 03:40:46;;;;;;;15.35;3.63;;;;;;;;;;5034537;28;20033;-64
2022/10/20 03:43:14;;;;;;;12.75;2.40;;;;;;;;;;5034682;28;20017;-64
2022/10/20 03:45:41;;;;;;;14.07;2.42;;;;;;;;;;5033800;28;20040;-64
2022/10/20 03:48:07;;;;;;;19.50;3.67;;;;;;;;;;5034880;28;20030;-64
2022/10/20 03:50:33;;;;;;;10.63;1.85;;;;;;;;;;5034554;28;20029;-64
2022/10/20 03:52:59;;;;;;;15.90;2.85;;;;;;;;;;5034760;28;20022;-64
2022/10/20 03:55:25;;;;;;;11.80;2.33;;;;;;;;;;5034814;28;20042;-64
2022/10/20 03:57:51;;;;;;;17.75;2.80;;;;;;;;;;5032703;28;20115;-64
2022/10/20 04:00:17;;;;;;;11.23;2.08;;;;;;;;;;5027940;28;20037;-64
2022/10/20 04:02:44;;;;;;;16.10;2.95;;;;;;;;;;5031542;28;20022;-64
2022/10/20 04:05:12;;;;;;;10.75;2.88;;;;;;;;;;5034561;28;20474;-64
2022/10/20 04:07:38;;;;;;;13.88;2.10;;;;;;;;;;5033695;28;20061;-64
2022/10/20 04:10:04;;;;;;;14.13;2.50;;;;;;;;;;5033480;28;20119;-64
2022/10/20 04:12:30;;;;;;;12.27;2.35;;;;;;;;;;5033565;28;20036;-64
2022/10/20 04:14:57;;;;;;;14.40;2.22;;;;;;;;;;5033811;28;20030;-64
2022/10/20 04:17:23;;;;;;;12.75;2.55;;;;;;;;;;5033536;28;20029;-64
2022/10/20 04:19:49;;;;;;;23.08;3.45;;;;;;;;;;5034210;28;20029;-64
2022/10/20 04:22:15;;;;;;;11.57;2.00;;;;;;;;;;5031911;28;20032;-64
2022/10/20 04:24:41;;;;;;;10.85;1.90;;;;;;;;;;5033278;28;20050;-64
2022/10/20 04:27:07;;;;;;;9.07;1.58;;;;;;;;;;5033799;28;20429;-64
2022/10/20 04:29:34;;;;;;;12.90;2.53;;;;;;;;;;5034096;28;20032;-64
2022/10/20 04:32:00;;;;;;;11.77;1.73;;;;;;;;;;5033721;28;20030;-64
2022/10/20 04:34:26;;;;;;;10.55;1.50;;;;;;;;;;5028692;28;20025;-64
2022/10/20 04:36:52;;;;;;;9.38;1.70;;;;;;;;;;5032351;28;20034;-64
2022/10/20 04:39:18;;;;;;;12.50;2.13;;;;;;;;;;5025805;28;20070;-64
2022/10/20 04:41:44;;;;;;;6.47;1.60;;;;;;;;;;5014226;28;20038;-64
2022/10/20 04:44:10;;;;;;;8.23;1.73;;;;;;;;;;5022378;28;20029;-64
2022/10/20 04:46:36;;;;;;;7.38;1.50;;;;;;;;;;5034069;28;20489;-64
2022/10/20 04:49:02;;;;;;;8.73;2.33;;;;;;;;;;5033833;28;20033;-64
2022/10/20 04:51:28;;;;;;;10.73;1.98;;;;;;;;;;5031521;28;20025;-64
2022/10/20 04:53:55;;;;;;;9.02;1.27;;;;;;;;;;5033564;28;20030;-64
2022/10/20 04:56:21;;;;;;;7.15;1.65;;;;;;;;;;5032645;28;20021;-64
2022/10/20 04:58:54;;;;;;;10.93;2.13;;;;;;;;;;5033934;28;20474;-64
2022/10/20 05:01:21;;;;;;;6.57;1.67;;;;;;;;;;5027072;28;20117;-64
2022/10/20 05:03:47;;;;;;;18.02;2.35;;;;;;;;;;5029015;28;20477;-64
2022/10/20 05:06:15;;;;;;;13.82;1.98;;;;;;;;;;5024246;28;20105;-64
2022/10/20 05:08:42;;;;;;;11.60;2.38;;;;;;;;;;5021754;28;20456;-64
2022/10/20 05:11:09;;;;;;;11.65;1.67;;;;;;;;;;5019256;28;20048;-64
2022/10/20 05:13:36;;;;;;;8.70;1.60;;;;;;;;;;5027216;28;20080;-64
2022/10/20 05:16:03;;;;;;;6.45;1.40;;;;;;;;;;5030741;28;20041;-64
2022/10/20 05:18:29;;;;;;;14.68;2.05;;;;;;;;;;5030925;28;20062;-64
2022/10/20 05:20:55;;;;;;;12.20;2.03;;;;;;;;;;5032685;28;20025;-64
2022/10/20 05:23:21;;;;;;;4.82;1.23;;;;;;;;;;5029428;28;20061;-64
2022/10/20 05:25:48;;;;;;;8.52;1.80;;;;;;;;;;5032037;28;20070;-64
2022/10/20 05:28:14;;;;;;;10.05;1.52;;;;;;;;;;5032640;28;20029;-65
2022/10/20 05:30:40;;;;;;;9.20;1.67;;;;;;;;;;5026180;28;20064;-65
2022/10/20 05:33:06;;;;;;;12.43;1.67;;;;;;;;;;5025815;28;20037;-65
2022/10/20 05:35:32;;;;;;;6.07;1.20;;;;;;;;;;5022542;28;20080;-65
2022/10/20 05:37:58;;;;;;;7.28;1.50;;;;;;;;;;5025518;28;20489;-65
2022/10/20 05:40:24;;;;;;;9.13;1.55;;;;;;;;;;5033438;28;20033;-66
2022/10/20 05:42:50;;;;;;;6.22;1.60;;;;;;;;;;5027635;28;20025;-64
2022/10/20 05:45:16;;;;;;;11.43;1.77;;;;;;;;;;5030697;28;20706;-65
2022/10/20 05:47:43;;;;;;;11.20;2.00;;;;;;;;;;5035268;28;20049;-65
2022/10/20 05:50:09;;;;;;;7.80;1.80;;;;;;;;;;5031639;28;20034;-65
2022/10/20 05:52:36;;;;;;;14.55;1.52;;;;;;;;;;5033931;28;20108;-65
2022/10/20 05:55:02;;;;;;;11.07;1.95;;;;;;;;;;5035373;28;20021;-65
2022/10/20 05:57:28;;;;;;;13.15;2.15;;;;;;;;;;5034422;28;20018;-65
2022/10/20 05:59:54;;;;;;;10.93;1.73;;;;;;;;;;5033043;28;20033;-65
2022/10/20 06:02:21;;;;;;;5.18;1.45;;;;;;;;;;5030223;28;20025;-66
2022/10/20 06:04:47;;;;;;;9.80;1.60;;;;;;;;;;5034520;28;20029;-65
2022/10/20 06:07:13;;;;;;;9.43;1.77;;;;;;;;;;5028797;28;20029;-64
2022/10/20 06:09:40;;;;;;;13.38;1.85;;;;;;;;;;5029326;28;20029;-64
2022/10/20 06:12:06;;;;;;;7.50;2.13;;;;;;;;;;5029716;28;20041;-64
2022/10/20 06:14:33;;;;;;;7.40;3.10;;;;;;;;;;5033346;28;20470;-64
2022/10/20 06:16:59;;;;;;;9.50;1.60;;;;;;;;;;5035250;28;20044;-64
2022/10/20 06:19:25;;;;;;;9.07;1.73;;;;;;;;;;5039860;28;20060;-64
2022/10/20 06:21:51;;;;;;;13.90;1.83;;;;;;;;;;5040745;28;20064;-64
2022/10/20 06:24:18;;;;;;;10.10;2.00;;;;;;;;;;5032811;28;20031;-64
2022/10/20 06:26:44;;;;;;;5.25;1.85;;;;;;;;;;5033770;28;20474;-64
2022/10/20 06:29:12;;;;;;;7.43;1.92;;;;;;;;;;5031500;28;20041;-64
2022/10/20 06:31:39;;;;;;;4.60;1.27;;;;;;;;;;5031944;28;20101;-64
2022/10/20 06:34:11;;;;;;;11.75;2.55;;;;;;;;;;5031943;28;20063;-64
2022/10/20 06:36:38;;;;;;;9.43;1.80;;;;;;;;;;5031706;28;20474;-64
2022/10/20 06:39:05;;;;;;;13.88;2.72;;;;;;;;;;5031473;28;20017;-64
2022/10/20 06:41:31;;;;;;;22.08;3.28;;;;;;;;;;5031790;28;20374;-64
2022/10/20 06:43:58;;;;;;;22.48;3.58;;;;;;;;;;5023541;28;20037;-64
2022/10/20 06:46:26;;;;;;;19.88;3.53;;;;;;;;;;5024598;28;20057;-65
2022/10/20 06:48:52;;;;;;;15.43;3.28;;;;;;;;;;5030541;28;20096;-65
2022/10/20 06:51:20;;;;;;;25.02;5.13;;;;;;;;;;5019533;28;20034;-64
2022/10/20 06:53:47;;;;;;;24.88;5.63;;;;;;;;;;5026702;28;20022;-64
2022/10/20 06:56:23;;;;;;;24.75;3.97;;;;;;;;;;5027087;28;20025;-64
2022/10/20 06:58:51;;;;;;;26.90;7.22;;;;;;;;;;5036610;28;20108;-64
2022/10/20 07:01:18;;;;;;;17.80;4.18;;;;;;;;;;5038645;28;20021;-64
2022/10/20 07:03:45;;;;;;;15.25;3.58;;;;;;;;;;5034087;28;20545;-64
2022/10/20 07:06:20;;;;;;;12.07;3.40;;;;;;;;;;5040363;28;20084;-64
2022/10/20 07:08:46;;;;;;;16.00;3.38;;;;;;;;;;5037086;28;20045;-64
2022/10/20 07:11:14;;;;;;;15.00;4.15;;;;;;;;;;5041006;28;20083;-64
2022/10/20 07:13:40;;;;;;;11.90;3.35;;;;;;;;;;5037828;28;20105;-64
2022/10/20 07:16:07;;;;;;;14.43;3.05;;;;;;;;;;5036715;28;20030;-64
2022/10/20 07:18:34;;;;;;;9.00;2.78;;;;;;;;;;5036189;28;20029;-64
2022/10/20 07:21:02;;;;;;;16.67;2.78;;;;;;;;;;5036571;28;20115;-64
2022/10/20 07:23:29;;;;;;;14.15;3.50;;;;;;;;;;5036184;28;20034;-64
2022/10/20 07:26:05;;;;;;;12.38;2.75;;;;;;;;;;5035720;28;20041;-64
2022/10/20 07:28:32;;;;;;;9.98;2.35;;;;;;;;;;5037385;28;20088;-64
2022/10/20 07:31:03;;;;;;;8.43;2.50;;;;;;;;;;5036668;28;20485;-65
2022/10/20 07:33:29;;;;;;;4.43;2.17;;;;;;;;;;5046169;28;20032;-64
2022/10/20 07:35:55;;;;;;;9.45;2.00;;;;;;;;;;5034104;28;20013;-64
2022/10/20 07:38:21;;;;;;;14.32;2.65;;;;;;;;;;5038475;28;20036;-64
2022/10/20 07:40:47;;;;;;;8.65;1.88;;;;;;;;;;5036932;28;20036;-64
2022/10/20 07:43:13;;;;;;;7.75;1.90;;;;;;;;;;5041934;28;20017;-64
2022/10/20 07:45:39;;;;;;;4.43;1.80;;;;;;;;;;5043591;28;20090;-64
2022/10/20 07:48:08;;;;;;;3.88;2.20;;;;;;;;;;5041830;28;20030;-64
2022/10/20 07:50:34;;;;;;;8.75;1.80;;;;;;;;;;5053314;28;20116;-64
2022/10/20 07:53:01;;;;;;;9.52;1.77;;;;;;;;;;5053648;28;20080;-64
2022/10/20 07:55:27;;;;;;;5.88;1.80;;;;;;;;;;5048896;28;20034;-64
2022/10/20 07:57:53;;;;;;;7.28;1.60;;;;;;;;;;5053410;28;20068;-64
2022/10/20 08:00:19;;;;;;;17.13;2.10;;;;;;;;;;5045295;28;20028;-64
2022/10/20 08:02:45;;;;;;;6.45;1.38;;;;;;;;;;5041199;28;20029;-64
2022/10/20 08:05:12;;;;;;;4.65;1.42;;;;;;;;;;5036925;28;20500;-64
2022/10/20 08:07:38;;;;;;;5.60;1.45;;;;;;;;;;5046323;28;20546;-64
2022/10/20 08:10:05;;;;;;;5.03;1.20;;;;;;;;;;5030995;28;20045;-64
2022/10/20 08:12:31;;;;;;;5.07;1.23;;;;;;;;;;5047164;28;20556;-65
2022/10/20 08:14:57;;;;;;;3.10;1.27;;;;;;;;;;5038643;28;20025;-65
2022/10/20 08:17:25;;;;;;;5.28;1.10;;;;;;;;;;5035738;28;20868;-64
2022/10/20 08:19:51;;;;;;;7.20;1.00;;;;;;;;;;5043082;28;20524;-65
2022/10/20 08:22:18;;;;;;;5.53;1.33;;;;;;;;;;5041111;28;20104;-65
2022/10/20 08:24:45;;;;;;;6.53;1.17;;;;;;;;;;5044776;28;20079;-65
2022/10/20 08:27:11;;;;;;;9.80;1.20;;;;;;;;;;5034461;28;20037;-64
2022/10/20 08:29:37;;;;;;;4.55;0.90;;;;;;;;;;5034027;28;20033;-64
2022/10/20 08:32:03;;;;;;;6.82;0.90;;;;;;;;;;5033942;28;20032;-64
2022/10/20 08:34:30;;;;;;;4.40;1.10;;;;;;;;;;5047435;28;20096;-64
2022/10/20 08:36:56;;;;;;;2.17;0.90;;;;;;;;;;5034142;28;20036;-64
2022/10/20 08:39:22;;;;;;;11.35;0.85;;;;;;;;;;5041471;28;20032;-64
2022/10/20 08:41:49;;;;;;;5.88;1.00;;;;;;;;;;5038919;28;20022;-64
2022/10/20 08:44:21;;;;;;;6.68;1.15;;;;;;;;;;5030039;28;20084;-64
2022/10/20 08:46:47;;;;;;;7.72;1.42;;;;;;;;;;5033038;28;20033;-64
2022/10/20 08:49:20;;;;;;;5.35;1.05;;;;;;;;;;5042084;28;20029;-64
2022/10/20 08:51:46;;;;;;;;;;;;;;;;;;5040953;28;20033;-64
2022/10/20 08:54:13;;;;;;;4.20;1.08;;;;;;;;;;5040721;28;20062;-64
2022/10/20 08:56:39;;;;;;;5.78;1.27;;;;;;;;;;5049746;28;20043;-64
2022/10/20 08:59:21;;;;;;;1.90;0.65;;;;;;;;;;5052938;28;20496;-64
2022/10/20 09:01:47;;;;;;;3.10;0.77;;;;;;;;;;5033667;28;20028;-64
2022/10/20 09:04:13;;;;;;;5.18;0.82;;;;;;;;;;5045724;28;20124;-64
2022/10/20 09:06:42;;;;;;;4.80;0.98;;;;;;;;;;5033945;28;20021;-64
2022/10/20 09:09:10;;;;;;;4.80;0.90;;;;;;;;;;5033055;28;20017;-64
2022/10/20 09:11:39;;;;;;;4.72;0.75;;;;;;;;;;5052486;28;20035;-64
2022/10/20 09:14:07;;;;;;;6.18;1.05;;;;;;;;;;5052063;28;20111;-64
2022/10/20 09:16:37;;;;;;;3.00;1.00;;;;;;;;;;5020731;28;20030;-64
2022/10/20 09:19:04;;;;;;;8.57;0.88;;;;;;;;;;5045668;28;20021;-65
2022/10/20 09:21:31;;;;;;;7.07;0.73;;;;;;;;;;5039723;28;20030;-65
2022/10/20 09:24:01;;;;;;;8.25;1.23;;;;;;;;;;5030998;28;20030;-64
2022/10/20 09:26:38;;;;;;;7.75;1.25;;;;;;;;;;5033770;28;20064;-64
2022/10/20 09:29:09;;;;;;;5.75;1.30;;;;;;;;;;5033761;28;20377;-64
2022/10/20 09:31:39;;;;;;;5.90;1.05;;;;;;;;;;5042469;28;20032;-64
2022/10/20 09:34:24;;;;;;;3.95;1.05;;;;;;;;;;5034949;28;20017;-64
2022/10/20 09:36:53;;;;;;;1.92;0.60;;;;;;;;;;5036038;28;20030;-64
2022/10/20 09:39:20;;;;;;;9.13;0.80;;;;;;;;;;5046150;28;20027;-64
2022/10/20 09:41:47;;;;;;;5.80;0.80;;;;;;;;;;5030674;28;20033;-64
2022/10/20 09:44:16;;;;;;;4.95;1.00;;;;;;;;;;5036154;28;20127;-64
2022/10/20 09:46:47;;;;;;;9.00;1.20;;;;;;;;;;5033673;28;20037;-64
2022/10/20 09:49:34;;;;;;;3.00;0.75;;;;;;;;;;5048475;28;20021;-64
2022/10/20 09:52:01;;;;;;;6.72;1.30;;;;;;;;;;5031656;28;20040;-64
2022/10/20 09:54:28;;;;;;;2.65;0.80;;;;;;;;;;5032160;28;20016;-64
2022/10/20 09:57:03;;;;;;;5.07;0.77;;;;;;;;;;5036685;28;20063;-64
2022/10/20 09:59:33;;;;;;;7.07;1.00;;;;;;;;;;5046179;28;20037;-64
2022/10/20 10:02:01;;;;;;;2.10;0.95;;;;;;;;;;5029596;28;20036;-64
2022/10/20 10:04:29;;;;;;;3.75;1.17;;;;;;;;;;5045329;28;20036;-64
2022/10/20 10:06:56;;;;;;;7.47;1.10;;;;;;;;;;5039606;28;20413;-64
2022/10/20 10:09:25;;;;;;;4.05;0.70;;;;;;;;;;5049014;28;20017;-64
2022/10/20 10:12:05;;;;;;;6.63;0.95;;;;;;;;;;5051978;28;20076;-64
2022/10/20 10:14:34;;;;;;;6.68;0.77;;;;;;;;;;5035573;28;20025;-64
2022/10/20 10:17:01;;;;;;;4.57;0.70;;;;;;;;;;5049456;28;20350;-64
2022/10/20 10:19:28;;;;;;;1.80;0.80;;;;;;;;;;5042706;28;20055;-64
2022/10/20 10:21:56;;;;;;;3.92;0.80;;;;;;;;;;5042664;28;20025;-64
2022/10/20 10:24:28;;;;;;;5.82;0.80;;;;;;;;;;5047686;28;20548;-64
2022/10/20 10:26:55;;;;;;;4.37;0.67;;;;;;;;;;5038422;28;20395;-64
2022/10/20 10:29:26;;;;;;;2.53;0.60;;;;;;;;;;5031335;28;20319;-64
2022/10/20 10:32:14;;;;;;;5.43;0.70;;;;;;;;;;5047817;28;20029;-64
2022/10/20 10:34:49;;;;;;;5.22;1.77;;;;;;;;;;5034008;28;20037;-64
2022/10/20 10:37:16;;;;;;;6.95;0.93;;;;;;;;;;5033750;28;20501;-64
2022/10/20 10:39:43;;;;;;;3.75;0.82;;;;;;;;;;5042472;28;20040;-64
2022/10/20 10:42:15;;;;;;;3.08;0.80;;;;;;;;;;5036389;28;20116;-65
2022/10/20 10:44:47;;;;;;;5.85;0.90;;;;;;;;;;5045471;28;20147;-65
2022/10/20 10:47:32;;;;;;;1.70;0.70;;;;;;;;;;5048903;28;20059;-65
2022/10/20 10:50:16;;;;;;;5.05;0.57;;;;;;;;;;5041009;28;20037;-65
2022/10/20 10:52:51;;;;;;;3.53;0.75;;;;;;;;;;5026551;28;20031;-65
2022/10/20 10:55:29;;;;;;;4.72;0.73;;;;;;;;;;5040415;28;20091;-65
2022/10/20 10:58:00;;;;;;;2.08;0.65;;;;;;;;;;5054304;28;20076;-65
2022/10/20 11:00:56;;;;;;;4.30;0.63;;;;;;;;;;5042617;28;20443;-65
2022/10/20 11:03:45;;;;;;;1.92;0.85;;;;;;;;;;5040423;28;20036;-65
2022/10/20 11:06:11;;;;;;;5.50;0.90;;;;;;;;;;5053513;28;20040;-65
2022/10/20 11:08:43;;;;;;;5.72;0.77;;;;;;;;;;5046400;28;20037;-65
2022/10/20 11:11:30;;;;;;;9.32;1.67;;;;;;;;;;5049208;28;20084;-65
2022/10/20 11:14:08;;;;;;;9.35;1.00;;;;;;;;;;5054259;28;20032;-64
2022/10/20 11:16:53;;;;;;;1.60;0.65;;;;;;;;;;5053812;28;20488;-64
2022/10/20 11:19:19;;;;;;;5.25;0.90;;;;;;;;;;5050808;28;20120;-65
2022/10/20 11:21:51;;;;;;;6.30;1.00;;;;;;;;;;5034858;28;20026;-65
2022/10/20 11:24:20;;;;;;;3.60;0.65;;;;;;;;;;5045039;28;20130;-65
2022/10/20 11:26:50;;;;;;;5.72;0.70;;;;;;;;;;5042054;28;20060;-65
2022/10/20 11:29:32;;;;;;;6.22;0.80;;;;;;;;;;5039071;28;20129;-65
2022/10/20 11:32:07;;;;;;;2.00;0.60;;;;;;;;;;5028762;28;20688;-65
2022/10/20 11:34:35;;;;;;;4.85;0.88;;;;;;;;;;5031869;28;20481;-65
2022/10/20 11:37:23;;;;;;;5.18;1.33;;;;;;;;;;5029471;28;20464;-65
2022/10/20 11:40:00;;;;;;;4.88;0.80;;;;;;;;;;5025415;28;20021;-65
2022/10/20 11:42:45;;;;;;;7.97;1.00;;;;;;;;;;5044319;28;20473;-65
2022/10/20 11:45:25;;;;;;;3.30;0.75;;;;;;;;;;5037274;28;20053;-65
2022/10/20 11:47:56;;;;;;;5.22;0.85;;;;;;;;;;5032265;28;20120;-65
2022/10/20 11:50:22;;;;;;;9.98;1.10;;;;;;;;;;5032802;28;20080;-65
2022/10/20 11:52:59;;;;;;;4.03;0.80;;;;;;;;;;5034265;28;20540;-65
2022/10/20 11:55:57;;;;;;;4.65;0.77;;;;;;;;;;5033845;28;20034;-65
2022/10/20 11:58:38;;;;;;;1.92;0.60;;;;;;;;;;5030506;28;20558;-65
2022/10/20 12:01:16;;;;;;;4.53;0.85;;;;;;;;;;5034264;28;20143;-66
2022/10/20 12:03:55;;;;;;;4.78;0.80;;;;;;;;;;5041432;28;20458;-65
2022/10/20 12:06:22;;;;;;;4.72;0.90;;;;;;;;;;5040335;28;20060;-66
2022/10/20 12:08:59;;;;;;;6.50;0.85;;;;;;;;;;5052848;28;20031;-66
2022/10/20 12:11:29;;;;;;;2.30;0.68;;;;;;;;;;5046996;28;20488;-65
2022/10/20 12:13:55;;;;;;;2.33;0.93;;;;;;;;;;5034492;28;20034;-65
2022/10/20 12:16:40;;;;;;;4.68;0.80;;;;;;;;;;5041051;28;20017;-65
2022/10/20 12:19:16;;;;;;;3.97;0.70;;;;;;;;;;5047047;28;20025;-65
2022/10/20 12:21:54;;;;;;;4.45;0.75;;;;;;;;;;5049931;28;20025;-65
2022/10/20 12:24:33;;;;;;;3.47;0.88;;;;;;;;;;5039268;28;20408;-65
2022/10/20 12:27:08;;;;;;;2.47;0.70;;;;;;;;;;5039980;28;20056;-65
2022/10/20 12:29:34;;;;;;;4.93;0.95;;;;;;;;;;5027374;28;20095;-65
2022/10/20 12:32:20;;;;;;;4.00;0.80;;;;;;;;;;5033905;28;20060;-65
2022/10/20 12:34:48;;;;;;;3.58;0.68;;;;;;;;;;5034241;28;20073;-65
2022/10/20 12:37:17;;;;;;;2.72;0.68;;;;;;;;;;5034349;28;20029;-65
2022/10/20 12:39:44;;;;;;;6.95;0.93;;;;;;;;;;5033163;28;20029;-65
2022/10/20 12:42:19;;;;;;;2.75;0.68;;;;;;;;;;5033850;28;20029;-65
2022/10/20 12:44:46;;;;;;;2.72;0.70;;;;;;;;;;5033657;28;20037;-65
2022/10/20 12:47:18;;;;;;;6.45;1.98;;;;;;;;;;5029143;28;20025;-65
2022/10/20 12:49:59;;;;;;;3.85;0.88;;;;;;;;;;5031896;28;20485;-65
2022/10/20 12:52:31;;;;;;;5.32;0.68;;;;;;;;;;5034540;28;20485;-65
2022/10/20 12:55:13;;;;;;;8.27;1.33;;;;;;;;;;5028586;28;20112;-65
2022/10/20 12:57:40;;;;;;;5.47;0.80;;;;;;;;;;5033023;28;20371;-67
2022/10/20 13:00:26;;;;;;;5.20;0.60;;;;;;;;;;5042158;28;20021;-66
2022/10/20 13:03:01;;;;;;;2.50;0.73;;;;;;;;;;5033132;28;20487;-66
2022/10/20 13:05:44;;;;;;;5.65;0.98;;;;;;;;;;5039168;28;20064;-66
2022/10/20 13:08:19;;;;;;;5.65;0.77;;;;;;;;;;5042568;28;20120;-66
2022/10/20 13:10:46;;;;;;;5.25;1.23;;;;;;;;;;5042129;28;20073;-66
2022/10/20 13:13:14;;;;;;;2.67;0.60;;;;;;;;;;5036496;28;20029;-66
2022/10/20 13:15:43;;;;;;;2.95;0.80;;;;;;;;;;5026135;28;20065;-65
2022/10/20 13:18:12;;;;;;;4.40;0.57;;;;;;;;;;5033110;28;20032;-66
2022/10/20 13:20:38;;;;;;;4.82;0.90;;;;;;;;;;5032422;28;20037;-66
2022/10/20 13:23:05;;;;;;;3.67;0.88;;;;;;;;;;5034796;28;20109;-66
2022/10/20 13:25:34;;;;;;;3.83;0.80;;;;;;;;;;5037685;28;20043;-66
2022/10/20 13:28:05;;;;;;;2.60;0.85;;;;;;;;;;5020397;28;20493;-66
2022/10/20 13:30:32;;;;;;;4.35;0.77;;;;;;;;;;5045872;28;20410;-66
2022/10/20 13:33:18;;;;;;;3.67;1.00;;;;;;;;;;5032132;28;20029;-66
2022/10/20 13:36:01;;;;;;;5.55;0.90;;;;;;;;;;5040008;28;20070;-66
2022/10/20 13:38:27;;;;;;;;;;;;;;;;;;5027532;28;20462;-66
2022/10/20 13:41:19;;;;;;;1.88;0.70;;;;;;;;;;5032305;28;19959;-66
2022/10/20 13:44:09;;;;;;;4.07;0.70;;;;;;;;;;5036062;28;20072;-66
2022/10/20 13:46:38;;;;;;;3.20;0.75;;;;;;;;;;5050620;28;20049;-66
2022/10/20 13:49:04;;;;;;;2.67;0.50;;;;;;;;;;5032258;28;20071;-66
2022/10/20 13:51:32;;;;;;;4.82;0.90;;;;;;;;;;5031823;28;20026;-66
2022/10/20 13:54:00;;;;;;;3.90;0.60;;;;;;;;;;5036873;28;20033;-66
2022/10/20 13:56:33;;;;;;;3.55;0.82;;;;;;;;;;5033611;28;20037;-66
2022/10/20 13:59:21;;;;;;;2.17;0.70;;;;;;;;;;5040888;28;20117;-66
2022/10/20 14:01:52;;;;;;;3.15;0.60;;;;;;;;;;5030523;28;20034;-66
2022/10/20 14:04:39;;;;;;;1.48;0.55;;;;;;;;;;5039705;28;20033;-66
2022/10/20 14:07:16;;;;;;;5.45;0.73;;;;;;;;;;5032352;28;20044;-66
2022/10/20 14:09:42;;;;;;;3.58;0.93;;;;;;;;;;5034214;28;20049;-66
2022/10/20 14:12:10;;;;;;;5.20;0.57;;;;;;;;;;5032164;28;20033;-66
2022/10/20 14:14:41;;;;;;;6.00;0.95;;;;;;;;;;5022773;28;20033;-66
2022/10/20 14:17:08;;;;;;;5.45;1.13;;;;;;;;;;5032295;28;20059;-66
2022/10/20 14:19:34;;;;;;;3.72;0.80;;;;;;;;;;5031841;28;20029;-66
2022/10/20 14:22:17;;;;;;;3.08;0.80;;;;;;;;;;5032049;28;20489;-66
2022/10/20 14:24:44;;;;;;;2.20;0.77;;;;;;;;;;5020994;28;20061;-66
2022/10/20 14:27:24;;;;;;;4.15;0.88;;;;;;;;;;5032688;28;20040;-66
2022/10/20 14:29:51;;;;;;;3.50;0.73;;;;;;;;;;5031239;28;20044;-66
2022/10/20 14:32:19;;;;;;;3.13;1.10;;;;;;;;;;5018835;28;20421;-67
2022/10/20 14:35:03;;;;;;;2.60;0.47;;;;;;;;;;5032969;28;20124;-66
2022/10/20 14:37:29;;;;;;;4.07;0.60;;;;;;;;;;5037382;28;20479;-66
2022/10/20 14:39:58;;;;;;;3.80;0.52;;;;;;;;;;5032898;28;20109;-66
2022/10/20 14:42:29;;;;;;;3.95;0.50;;;;;;;;;;5031903;28;20028;-66
2022/10/20 14:44:56;;;;;;;2.97;0.50;;;;;;;;;;5031849;28;20025;-66
2022/10/20 14:47:22;;;;;;;3.15;0.50;;;;;;;;;;5031654;28;20515;-66
2022/10/20 14:49:50;;;;;;;4.00;0.50;;;;;;;;;;5018901;28;20034;-66
2022/10/20 14:52:16;;;;;;;2.58;0.70;;;;;;;;;;5032347;28;20481;-66